createdAt,value
2017-05-17T00:01:00.987Z,5.46
2017-05-17T00:03:27.967Z,5.64
2017-05-17T00:05:54.306Z,5.76
2017-05-17T00:08:20.651Z,5.60
2017-05-17T00:10:47.021Z,5.38
2017-05-17T00:13:13.356Z,6.44
2017-05-17T00:15:39.690Z,5.88
2017-05-17T00:18:06.042Z,6.44
2017-05-17T00:20:32.388Z,5.32
2017-05-17T00:22:58.749Z,5.20
2017-05-17T00:25:25.082Z,5.38
2017-05-17T00:27:51.435Z,5.54
2017-05-17T00:30:17.757Z,6.16
2017-05-17T00:32:44.115Z,5.12
2017-05-17T00:35:10.496Z,5.54
2017-05-17T00:37:49.181Z,5.18
2017-05-17T00:40:27.544Z,5.06
2017-05-17T00:43:06.092Z,4.96
2017-05-17T00:45:44.374Z,4.44
2017-05-17T00:48:23.023Z,3.92
2017-05-17T00:51:01.366Z,5.48
2017-05-17T00:53:27.705Z,5.10
2017-05-17T00:55:54.081Z,4.70
2017-05-17T00:58:20.428Z,3.98
2017-05-17T01:00:46.765Z,4.30
2017-05-17T01:03:13.087Z,4.98
2017-05-17T01:05:39.453Z,5.08
2017-05-17T01:08:05.789Z,5.10
2017-05-17T01:10:32.142Z,5.48
2017-05-17T01:12:58.508Z,4.68
2017-05-17T01:15:24.859Z,5.08
2017-05-17T01:17:51.213Z,3.96
2017-05-17T01:20:17.582Z,3.44
2017-05-17T01:22:43.935Z,3.24
2017-05-17T01:25:10.272Z,2.80
2017-05-17T01:27:36.614Z,3.00
2017-05-17T01:30:03.019Z,2.80
2017-05-17T01:32:29.514Z,3.16
2017-05-17T01:34:55.893Z,2.90
2017-05-17T01:37:22.282Z,2.70
2017-05-17T01:39:48.655Z,2.98
2017-05-17T01:42:15.048Z,2.50
2017-05-17T01:44:41.444Z,2.82
2017-05-17T01:47:08.094Z,2.70
2017-05-17T01:49:34.454Z,2.78
2017-05-17T01:52:00.789Z,2.62
2017-05-17T01:54:27.137Z,2.60
2017-05-17T01:56:53.482Z,2.86
2017-05-17T01:59:19.848Z,3.30
2017-05-17T02:01:46.212Z,2.48
2017-05-17T02:04:12.588Z,2.56
2017-05-17T02:06:38.937Z,2.62
2017-05-17T02:09:05.298Z,2.00
2017-05-17T02:11:31.654Z,2.60
2017-05-17T02:13:58.022Z,2.42
2017-05-17T02:16:24.372Z,2.86
2017-05-17T02:18:50.696Z,2.22
2017-05-17T02:21:17.064Z,2.94
2017-05-17T02:23:43.433Z,2.30
2017-05-17T02:26:09.801Z,2.60
2017-05-17T02:28:36.199Z,2.90
2017-05-17T02:31:02.559Z,2.72
2017-05-17T02:33:28.905Z,2.84
2017-05-17T02:35:55.263Z,2.88
2017-05-17T02:38:21.627Z,3.22
2017-05-17T02:40:47.978Z,2.78
2017-05-17T02:43:14.331Z,2.72
2017-05-17T02:45:40.684Z,2.60
2017-05-17T02:48:07.033Z,2.62
2017-05-17T02:50:33.382Z,2.84
2017-05-17T02:52:59.748Z,2.32
2017-05-17T02:55:26.133Z,2.70
2017-05-17T02:57:52.529Z,2.44
2017-05-17T03:00:18.897Z,3.50
2017-05-17T03:02:45.272Z,2.50
2017-05-17T03:05:11.631Z,2.20
2017-05-17T03:07:37.969Z,2.76
2017-05-17T03:10:04.313Z,2.70
2017-05-17T03:12:30.644Z,3.16
2017-05-17T03:14:57.023Z,2.68
2017-05-17T03:17:23.401Z,2.62
2017-05-17T03:19:49.759Z,2.60
2017-05-17T03:22:16.078Z,2.50
2017-05-17T03:24:42.439Z,2.48
2017-05-17T03:27:08.814Z,2.84
2017-05-17T03:29:35.153Z,2.88
2017-05-17T03:32:01.530Z,2.74
2017-05-17T03:34:27.920Z,3.36
2017-05-17T03:36:54.264Z,2.78
2017-05-17T03:39:20.608Z,3.68
2017-05-17T03:41:46.953Z,3.40
2017-05-17T03:44:13.303Z,3.84
2017-05-17T03:46:39.657Z,4.10
2017-05-17T03:49:05.995Z,3.58
2017-05-17T03:51:32.331Z,3.54
2017-05-17T03:53:58.680Z,3.88
2017-05-17T03:56:25.036Z,2.84
2017-05-17T03:58:51.383Z,3.32
2017-05-17T04:01:17.744Z,3.48
2017-05-17T04:03:44.099Z,2.68
2017-05-17T04:06:10.457Z,3.50
2017-05-17T04:08:36.814Z,2.88
2017-05-17T04:11:03.169Z,2.88
2017-05-17T04:13:29.523Z,2.98
2017-05-17T04:15:55.893Z,3.18
2017-05-17T04:18:22.249Z,3.04
2017-05-17T04:20:48.593Z,2.94
2017-05-17T04:23:14.944Z,3.60
2017-05-17T04:25:41.328Z,2.86
2017-05-17T04:28:07.652Z,3.12
2017-05-17T04:30:34.012Z,3.30
2017-05-17T04:33:00.375Z,3.60
2017-05-17T04:35:26.710Z,3.20
2017-05-17T04:37:53.039Z,3.10
2017-05-17T04:40:19.359Z,3.50
2017-05-17T04:42:45.715Z,4.10
2017-05-17T04:45:12.085Z,3.26
2017-05-17T04:47:38.421Z,3.98
2017-05-17T04:50:04.777Z,3.82
2017-05-17T04:52:31.165Z,3.14
2017-05-17T04:54:57.559Z,3.70
2017-05-17T04:57:23.914Z,3.00
2017-05-17T04:59:50.309Z,3.08
2017-05-17T05:02:16.702Z,2.64
2017-05-17T05:04:43.045Z,3.24
2017-05-17T05:07:09.405Z,3.30
2017-05-17T05:09:35.785Z,3.06
2017-05-17T05:12:02.126Z,2.60
2017-05-17T05:14:28.513Z,3.00
2017-05-17T05:16:54.870Z,3.32
2017-05-17T05:19:21.223Z,3.32
2017-05-17T05:21:47.637Z,2.84
2017-05-17T05:24:14.009Z,3.00
2017-05-17T05:26:40.376Z,2.84
2017-05-17T05:29:06.748Z,2.98
2017-05-17T05:31:33.129Z,3.30
2017-05-17T05:34:00.019Z,3.38
2017-05-17T05:36:26.439Z,3.50
2017-05-17T05:38:52.813Z,3.30
2017-05-17T05:41:19.184Z,3.50
2017-05-17T05:43:45.558Z,3.30
2017-05-17T05:46:11.975Z,3.12
2017-05-17T05:48:38.336Z,3.34
2017-05-17T05:51:04.697Z,2.74
2017-05-17T05:53:31.090Z,3.00
2017-05-17T05:55:57.476Z,2.24
2017-05-17T05:58:23.829Z,2.64
2017-05-17T06:00:50.180Z,2.04
2017-05-17T06:03:16.491Z,2.32
2017-05-17T06:05:42.879Z,2.26
2017-05-17T06:08:09.235Z,2.12
2017-05-17T06:10:35.575Z,2.48
2017-05-17T06:13:01.928Z,2.16
2017-05-17T06:15:28.263Z,2.70
2017-05-17T06:17:54.681Z,2.60
2017-05-17T06:20:21.024Z,2.00
2017-05-17T06:22:47.413Z,2.64
2017-05-17T06:25:13.742Z,2.92
2017-05-17T06:27:40.082Z,2.42
2017-05-17T06:30:06.435Z,2.24
2017-05-17T06:32:32.815Z,2.62
2017-05-17T06:34:59.182Z,2.52
2017-05-17T06:37:25.546Z,2.44
2017-05-17T06:39:51.873Z,3.00
2017-05-17T06:42:18.222Z,2.58
2017-05-17T06:44:44.574Z,2.58
2017-05-17T06:47:10.935Z,2.80
2017-05-17T06:49:37.288Z,2.78
2017-05-17T06:52:03.602Z,2.48
2017-05-17T06:54:29.960Z,3.14
2017-05-17T06:56:56.296Z,2.60
2017-05-17T06:59:22.624Z,2.50
2017-05-17T07:01:48.992Z,2.36
2017-05-17T07:04:15.344Z,2.42
2017-05-17T07:06:41.696Z,2.54
2017-05-17T07:09:08.041Z,2.44
2017-05-17T07:11:34.460Z,2.58
2017-05-17T07:14:00.791Z,2.38
2017-05-17T07:16:27.157Z,2.80
2017-05-17T07:18:53.541Z,2.36
2017-05-17T07:21:19.962Z,2.56
2017-05-17T07:23:46.288Z,2.30
2017-05-17T07:26:12.664Z,2.42
2017-05-17T07:28:39.008Z,2.40
2017-05-17T07:31:05.371Z,2.60
2017-05-17T07:33:31.719Z,2.40
2017-05-17T07:35:58.094Z,2.56
2017-05-17T07:38:24.480Z,2.10
2017-05-17T07:40:50.825Z,2.30
2017-05-17T07:43:17.130Z,2.24
2017-05-17T07:45:43.465Z,2.30
2017-05-17T07:48:09.820Z,2.72
2017-05-17T07:50:36.158Z,2.08
2017-05-17T07:53:02.518Z,2.12
2017-05-17T07:55:28.839Z,1.86
2017-05-17T07:57:55.209Z,1.84
2017-05-17T08:00:21.588Z,2.62
2017-05-17T08:02:47.914Z,2.02
2017-05-17T08:05:14.246Z,2.30
2017-05-17T08:07:40.594Z,1.78
2017-05-17T08:10:06.930Z,2.16
2017-05-17T08:12:33.286Z,2.08
2017-05-17T08:14:59.610Z,2.40
2017-05-17T08:17:26.025Z,2.32
2017-05-17T08:19:52.380Z,1.70
2017-05-17T08:22:18.738Z,1.94
2017-05-17T08:24:45.087Z,2.06
2017-05-17T08:27:11.419Z,1.64
2017-05-17T08:29:37.774Z,1.80
2017-05-17T08:32:04.122Z,1.90
2017-05-17T08:34:30.479Z,2.20
2017-05-17T08:36:56.888Z,1.90
2017-05-17T08:39:23.230Z,2.34
2017-05-17T08:41:49.569Z,2.48
2017-05-17T08:44:15.882Z,1.94
2017-05-17T08:46:42.249Z,2.20
2017-05-17T08:49:08.619Z,2.30
2017-05-17T08:51:35.005Z,2.32
2017-05-17T08:54:01.339Z,2.00
2017-05-17T08:56:27.704Z,1.84
2017-05-17T08:58:54.049Z,2.50
2017-05-17T09:01:20.390Z,2.04
2017-05-17T09:03:46.735Z,2.48
2017-05-17T09:06:13.094Z,2.04
2017-05-17T09:08:39.459Z,2.68
2017-05-17T09:11:05.794Z,2.56
2017-05-17T09:13:32.125Z,2.06
2017-05-17T09:15:58.517Z,2.12
2017-05-17T09:18:24.861Z,2.40
2017-05-17T09:20:51.226Z,2.74
2017-05-17T09:23:17.621Z,2.16
2017-05-17T09:25:43.982Z,2.40
2017-05-17T09:28:10.326Z,2.08
2017-05-17T09:30:36.658Z,1.90
2017-05-17T09:33:03.023Z,2.30
2017-05-17T09:35:29.370Z,2.48
2017-05-17T09:37:55.725Z,2.16
2017-05-17T09:40:22.074Z,2.30
2017-05-17T09:42:48.429Z,2.32
2017-05-17T09:45:14.753Z,2.58
2017-05-17T09:47:41.104Z,2.62
2017-05-17T09:50:07.445Z,2.54
2017-05-17T09:52:33.830Z,2.60
2017-05-17T09:55:00.153Z,2.12
2017-05-17T09:57:26.487Z,2.08
2017-05-17T09:59:52.824Z,2.54
2017-05-17T10:02:19.191Z,2.42
2017-05-17T10:04:45.515Z,2.58
2017-05-17T10:07:11.857Z,2.30
2017-05-17T10:09:38.210Z,2.58
2017-05-17T10:12:04.553Z,2.12
2017-05-17T10:14:30.877Z,2.34
2017-05-17T10:16:57.212Z,2.04
2017-05-17T10:19:23.550Z,2.00
2017-05-17T10:21:49.880Z,1.88
2017-05-17T10:24:16.218Z,2.64
2017-05-17T10:26:42.562Z,2.48
2017-05-17T10:29:08.911Z,2.36
2017-05-17T10:31:35.254Z,2.84
2017-05-17T10:34:01.588Z,2.02
2017-05-17T10:36:27.913Z,2.14
2017-05-17T10:38:54.222Z,2.52
2017-05-17T10:41:20.574Z,2.30
2017-05-17T10:43:46.906Z,2.08
2017-05-17T10:46:13.284Z,2.48
2017-05-17T10:48:39.616Z,2.08
2017-05-17T10:51:05.979Z,2.88
2017-05-17T10:53:32.320Z,2.48
2017-05-17T10:55:58.664Z,2.48
2017-05-17T10:58:25.041Z,2.48
2017-05-17T11:00:51.359Z,2.04
2017-05-17T11:03:17.693Z,2.22
2017-05-17T11:05:44.027Z,2.62
2017-05-17T11:08:10.374Z,2.36
2017-05-17T11:10:36.734Z,1.92
2017-05-17T11:13:03.085Z,2.16
2017-05-17T11:15:29.457Z,2.58
2017-05-17T11:17:55.819Z,2.30
2017-05-17T11:20:22.167Z,2.66
2017-05-17T11:22:48.509Z,2.70
2017-05-17T11:25:14.860Z,2.10
2017-05-17T11:27:41.211Z,2.40
2017-05-17T11:30:07.564Z,2.36
2017-05-17T11:32:33.893Z,2.32
2017-05-17T11:35:00.239Z,2.46
2017-05-17T11:37:26.602Z,2.88
2017-05-17T11:39:52.956Z,2.46
2017-05-17T11:42:19.294Z,2.10
2017-05-17T11:44:45.665Z,2.38
2017-05-17T11:47:12.054Z,2.44
2017-05-17T11:49:38.421Z,2.10
2017-05-17T11:52:04.769Z,2.30
2017-05-17T11:54:31.447Z,2.26
2017-05-17T11:56:57.768Z,2.40
2017-05-17T11:59:24.118Z,2.60
2017-05-17T12:01:50.479Z,2.08
2017-05-17T12:04:16.841Z,2.08
2017-05-17T12:06:43.183Z,2.40
2017-05-17T12:09:09.525Z,2.34
2017-05-17T12:11:35.866Z,2.64
2017-05-17T12:14:02.238Z,2.40
2017-05-17T12:16:28.591Z,2.50
2017-05-17T12:18:54.949Z,2.30
2017-05-17T12:21:21.307Z,2.54
2017-05-17T12:23:47.703Z,2.28
2017-05-17T12:26:14.065Z,2.20
2017-05-17T12:28:40.395Z,2.80
2017-05-17T12:31:06.843Z,2.40
2017-05-17T12:33:33.221Z,2.26
2017-05-17T12:35:59.573Z,2.26
2017-05-17T12:38:25.943Z,2.14
2017-05-17T12:40:52.312Z,2.90
2017-05-17T12:43:18.634Z,2.22
2017-05-17T12:45:45.003Z,2.16
2017-05-17T12:48:11.348Z,2.48
2017-05-17T12:50:42.079Z,2.60
2017-05-17T12:53:08.541Z,2.60
2017-05-17T12:55:34.851Z,2.16
2017-05-17T12:58:01.190Z,2.38
2017-05-17T13:00:27.530Z,2.72
2017-05-17T13:02:53.882Z,2.44
2017-05-17T13:05:20.240Z,2.46
2017-05-17T13:07:46.610Z,2.40
2017-05-17T13:10:13.044Z,2.22
2017-05-17T13:12:39.415Z,2.32
2017-05-17T13:15:05.757Z,2.32
2017-05-17T13:17:32.128Z,2.60
2017-05-17T13:19:58.474Z,2.56
2017-05-17T13:22:24.806Z,2.48
2017-05-17T13:24:51.138Z,2.60
2017-05-17T13:27:17.501Z,2.46
2017-05-17T13:29:43.915Z,2.80
2017-05-17T13:32:10.294Z,2.80
2017-05-17T13:34:36.635Z,2.66
2017-05-17T13:37:02.969Z,2.60
2017-05-17T13:39:29.321Z,2.28
2017-05-17T13:41:55.658Z,2.58
2017-05-17T13:44:22.008Z,2.96
2017-05-17T13:46:49.101Z,2.62
2017-05-17T13:49:15.710Z,2.54
2017-05-17T13:51:42.127Z,2.36
2017-05-17T13:54:08.477Z,2.82
2017-05-17T13:56:34.832Z,2.70
2017-05-17T13:59:01.226Z,2.62
2017-05-17T14:01:27.608Z,2.50
2017-05-17T14:03:53.958Z,3.10
2017-05-17T14:06:20.291Z,2.64
2017-05-17T14:08:46.781Z,2.44
2017-05-17T14:11:13.217Z,2.46
2017-05-17T14:13:39.808Z,2.20
2017-05-17T14:16:06.163Z,2.74
2017-05-17T14:18:32.507Z,2.04
2017-05-17T14:20:58.854Z,2.54
2017-05-17T14:23:25.838Z,2.68
2017-05-17T14:25:52.178Z,2.92
2017-05-17T14:28:18.519Z,2.74
2017-05-17T14:30:44.931Z,2.10
2017-05-17T14:33:11.270Z,2.32
2017-05-17T14:35:37.630Z,2.60
2017-05-17T14:38:03.959Z,2.34
2017-05-17T14:40:30.297Z,2.56
2017-05-17T14:42:56.678Z,2.66
2017-05-17T14:45:23.011Z,2.50
2017-05-17T14:47:49.397Z,2.12
2017-05-17T14:50:15.764Z,2.48
2017-05-17T14:52:42.191Z,2.40
2017-05-17T14:55:09.432Z,2.48
2017-05-17T14:57:35.813Z,2.16
2017-05-17T15:00:02.173Z,2.26
2017-05-17T15:02:28.508Z,2.40
2017-05-17T15:04:54.848Z,2.28
2017-05-17T15:07:21.208Z,2.28
2017-05-17T15:09:47.522Z,2.36
2017-05-17T15:12:13.889Z,3.02
2017-05-17T15:14:40.217Z,2.36
2017-05-17T15:17:06.530Z,2.76
2017-05-17T15:19:32.887Z,2.46
2017-05-17T15:21:59.278Z,2.06
2017-05-17T15:24:25.635Z,2.34
2017-05-17T15:26:51.999Z,2.20
2017-05-17T15:29:18.344Z,2.36
2017-05-17T15:31:44.697Z,2.58
2017-05-17T15:34:11.054Z,2.06
2017-05-17T15:36:37.435Z,2.40
2017-05-17T15:39:04.232Z,2.20
2017-05-17T15:41:30.589Z,2.56
2017-05-17T15:43:56.924Z,2.42
2017-05-17T15:46:23.270Z,2.48
2017-05-17T15:48:49.610Z,3.04
2017-05-17T15:51:15.935Z,2.30
2017-05-17T15:53:42.471Z,1.96
2017-05-17T15:56:08.808Z,6.04
2017-05-17T15:58:35.161Z,2.52
2017-05-17T16:01:01.524Z,2.24
2017-05-17T16:03:27.903Z,2.38
2017-05-17T16:05:54.309Z,2.36
2017-05-17T16:10:42.080Z,1.92
2017-05-17T16:13:08.441Z,2.70
2017-05-17T16:15:34.779Z,2.52
2017-05-17T16:18:01.118Z,2.44
2017-05-17T16:20:27.520Z,2.50
2017-05-17T16:22:53.865Z,2.52
2017-05-17T16:25:20.240Z,2.96
2017-05-17T16:27:46.598Z,2.56
2017-05-17T16:30:13.012Z,2.68
2017-05-17T16:32:39.389Z,2.20
2017-05-17T16:35:05.760Z,2.32
2017-05-17T16:37:32.172Z,2.60
2017-05-17T16:39:58.500Z,2.70
2017-05-17T16:42:24.824Z,2.12
2017-05-17T16:44:51.182Z,2.30
2017-05-17T16:47:17.512Z,2.40
2017-05-17T16:49:43.859Z,3.10
2017-05-17T16:52:10.555Z,2.80
2017-05-17T16:54:36.899Z,2.90
2017-05-17T16:57:03.243Z,2.48
2017-05-17T16:59:29.582Z,2.70
2017-05-17T17:01:55.921Z,3.10
2017-05-17T17:04:22.294Z,2.50
2017-05-17T17:06:48.642Z,2.78
2017-05-17T17:09:14.992Z,2.78
2017-05-17T17:11:41.306Z,2.74
2017-05-17T17:14:07.682Z,2.64
2017-05-17T17:16:34.096Z,2.64
2017-05-17T17:19:00.419Z,3.10
2017-05-17T17:21:26.764Z,2.78
2017-05-17T17:23:53.121Z,3.42
2017-05-17T17:26:19.473Z,2.64
2017-05-17T17:28:45.811Z,3.30
2017-05-17T17:31:12.182Z,3.16
2017-05-17T17:33:38.504Z,3.14
2017-05-17T17:36:04.881Z,2.84
2017-05-17T17:38:31.207Z,2.82
2017-05-17T17:40:57.562Z,2.92
2017-05-17T17:43:23.913Z,2.90
2017-05-17T17:45:50.233Z,2.82
2017-05-17T17:48:16.573Z,3.00
2017-05-17T17:50:42.899Z,3.10
2017-05-17T17:53:09.236Z,2.74
2017-05-17T17:55:35.564Z,2.84
2017-05-17T17:58:01.917Z,3.10
2017-05-17T18:00:28.270Z,2.88
2017-05-17T18:02:54.642Z,3.12
2017-05-17T18:05:20.998Z,2.82
2017-05-17T18:07:47.330Z,3.20
2017-05-17T18:10:13.673Z,3.46
2017-05-17T18:12:40.006Z,2.70
2017-05-17T18:15:06.330Z,3.16
2017-05-17T18:17:32.701Z,2.50
2017-05-17T18:19:59.046Z,3.06
2017-05-17T18:22:25.387Z,3.02
2017-05-17T18:24:51.740Z,3.46
2017-05-17T18:27:18.083Z,2.90
2017-05-17T18:29:51.242Z,3.32
2017-05-17T18:32:17.593Z,2.74
2017-05-17T18:34:43.939Z,2.92
2017-05-17T18:37:10.270Z,3.10
2017-05-17T18:39:36.609Z,2.82
2017-05-17T18:42:02.937Z,2.82
2017-05-17T18:44:29.260Z,3.06
2017-05-17T18:46:55.603Z,3.30
2017-05-17T18:49:21.947Z,2.62
2017-05-17T18:51:48.299Z,2.90
2017-05-17T18:54:14.633Z,2.58
2017-05-17T18:56:40.996Z,2.80
2017-05-17T18:59:07.377Z,3.24
2017-05-17T19:01:33.738Z,2.68
2017-05-17T19:04:00.071Z,3.02
2017-05-17T19:06:26.417Z,3.02
2017-05-17T19:08:52.782Z,3.40
2017-05-17T19:11:19.123Z,2.78
2017-05-17T19:13:45.470Z,3.16
2017-05-17T19:16:11.857Z,2.92
2017-05-17T19:18:38.194Z,3.28
2017-05-17T19:21:04.554Z,2.80
2017-05-17T19:23:30.916Z,3.18
2017-05-17T19:25:57.292Z,2.94
2017-05-17T19:28:23.623Z,3.00
2017-05-17T19:30:50.129Z,2.90
2017-05-17T19:33:16.510Z,3.18
2017-05-17T19:35:43.258Z,3.14
2017-05-17T19:38:10.261Z,3.08
2017-05-17T19:40:36.638Z,3.60
2017-05-17T19:43:03.025Z,3.40
2017-05-17T19:45:29.472Z,2.90
2017-05-17T19:47:55.903Z,3.04
2017-05-17T19:50:22.235Z,3.38
2017-05-17T19:52:48.581Z,2.98
2017-05-17T19:55:14.940Z,3.10
2017-05-17T19:57:41.278Z,3.34
2017-05-17T20:00:07.649Z,3.14
2017-05-17T20:02:33.986Z,3.38
2017-05-17T20:05:00.348Z,3.30
2017-05-17T20:07:26.708Z,3.38
2017-05-17T20:09:53.062Z,3.16
2017-05-17T20:12:19.429Z,2.96
2017-05-17T20:14:45.775Z,3.28
2017-05-17T20:17:12.090Z,3.08
2017-05-17T20:19:38.568Z,3.08
2017-05-17T20:22:04.890Z,3.00
2017-05-17T20:24:31.235Z,3.26
2017-05-17T20:26:57.628Z,3.28
2017-05-17T20:29:24.056Z,3.40
2017-05-17T20:31:50.447Z,3.44
2017-05-17T20:34:17.288Z,3.26
2017-05-17T20:36:43.710Z,3.28
2017-05-17T20:39:10.055Z,3.22
2017-05-17T20:41:36.433Z,2.78
2017-05-17T20:44:02.774Z,3.40
2017-05-17T20:46:29.171Z,3.40
2017-05-17T20:48:55.515Z,3.18
2017-05-17T20:51:21.842Z,3.30
2017-05-17T20:53:48.188Z,3.00
2017-05-17T20:56:14.525Z,3.48
2017-05-17T20:58:40.903Z,3.36
2017-05-17T21:01:07.245Z,3.60
2017-05-17T21:03:33.604Z,2.86
2017-05-17T21:05:59.956Z,2.92
2017-05-17T21:08:26.297Z,3.52
2017-05-17T21:10:52.646Z,3.34
2017-05-17T21:13:19.054Z,3.12
2017-05-17T21:15:45.446Z,2.82
2017-05-17T21:18:11.799Z,3.52
2017-05-17T21:20:38.136Z,2.60
2017-05-17T21:23:04.579Z,3.22
2017-05-17T21:25:32.184Z,2.92
2017-05-17T21:27:58.569Z,3.38
2017-05-17T21:30:24.918Z,3.20
2017-05-17T21:32:51.262Z,3.24
2017-05-17T21:35:17.636Z,3.24
2017-05-17T21:37:43.982Z,3.10
2017-05-17T21:40:10.341Z,3.42
2017-05-17T21:42:36.710Z,3.04
2017-05-17T21:45:03.030Z,3.20
2017-05-17T21:47:29.363Z,3.10
2017-05-17T21:49:55.737Z,2.86
2017-05-17T21:52:22.080Z,3.38
2017-05-17T21:54:48.432Z,3.66
2017-05-17T21:57:14.824Z,3.42
2017-05-17T21:59:41.142Z,3.50
2017-05-17T22:02:07.478Z,3.56
2017-05-17T22:04:33.841Z,2.88
2017-05-17T22:07:00.889Z,3.10
2017-05-17T22:09:27.436Z,3.42
2017-05-17T22:11:53.767Z,3.32
2017-05-17T22:14:20.105Z,3.38
2017-05-17T22:16:46.441Z,3.58
2017-05-17T22:19:12.783Z,3.76
2017-05-17T22:21:39.130Z,3.30
2017-05-17T22:24:05.436Z,3.44
2017-05-17T22:26:31.773Z,3.38
2017-05-17T22:28:58.098Z,3.46
2017-05-17T22:31:24.515Z,3.22
2017-05-17T22:33:50.872Z,3.26
2017-05-17T22:36:17.212Z,3.68
2017-05-17T22:38:43.552Z,3.08
2017-05-17T22:41:09.952Z,3.30
2017-05-17T22:43:36.297Z,3.08
2017-05-17T22:46:02.703Z,3.28
2017-05-17T22:48:29.078Z,3.20
2017-05-17T22:50:55.433Z,3.00
2017-05-17T22:53:21.770Z,3.20
2017-05-17T22:55:48.175Z,2.96
2017-05-17T22:58:14.561Z,2.86
2017-05-17T23:00:40.917Z,3.04
2017-05-17T23:03:07.270Z,2.84
2017-05-17T23:05:33.619Z,3.22
2017-05-17T23:08:00.582Z,3.36
2017-05-17T23:10:27.025Z,3.18
2017-05-17T23:12:53.383Z,3.48
2017-05-17T23:15:19.907Z,2.80
2017-05-17T23:17:46.301Z,3.16
2017-05-17T23:20:12.652Z,3.38
2017-05-17T23:22:39.045Z,3.50
2017-05-17T23:25:05.399Z,2.76
2017-05-17T23:27:32.161Z,3.02
2017-05-17T23:29:59.169Z,3.02
2017-05-17T23:32:25.860Z,2.90
2017-05-17T23:34:52.224Z,3.04
2017-05-17T23:37:18.587Z,2.88
2017-05-17T23:39:44.969Z,3.30
2017-05-17T23:42:11.626Z,3.36
2017-05-17T23:44:38.521Z,3.38
2017-05-17T23:47:05.278Z,3.16
2017-05-17T23:49:31.783Z,3.00
2017-05-17T23:51:58.301Z,3.42
2017-05-17T23:54:24.762Z,3.32
2017-05-17T23:56:51.146Z,3.14
2017-05-17T23:59:17.626Z,3.78
